Time;durP1;ratioP1;P1;durP2;ratioP2;P2;SDS_P1;SDS_P2;PMS_P1;PMS_P2;Temp;Humidity;BMP_temperature;BMP_pressure;BME280_temperature;BME280_humidity;BME280_pressure;Samples;Min_cycle;Max_cycle;Signal;HPM_P1;HPM_P2
2022/11/23 00:01:32;;;;;;;17.57;9.63;;;8.90;99.90;;;;;;5029208;28;20216;-71
2022/11/23 00:04:07;;;;;;;18.13;9.53;;;8.90;99.90;;;;;;5042358;28;20201;-69
2022/11/23 00:06:35;;;;;;;17.13;10.17;;;8.90;99.90;;;;;;5050261;28;20223;-69
2022/11/23 00:09:02;;;;;;;18.07;9.70;;;8.90;99.90;;;;;;5037410;28;20843;-70
2022/11/23 00:11:29;;;;;;;16.67;10.20;;;8.90;99.90;;;;;;5039923;28;20212;-69
2022/11/23 00:13:56;;;;;;;20.07;9.37;;;8.90;99.90;;;;;;5045532;28;20279;-70
2022/11/23 00:16:26;;;;;;;18.37;10.13;;;8.90;99.90;;;;;;5043155;28;20377;-68
2022/11/23 00:18:55;;;;;;;18.77;10.70;;;8.90;99.90;;;;;;5039173;28;20205;-68
2022/11/23 00:21:23;;;;;;;17.20;11.07;;;8.90;99.90;;;;;;5032660;28;20300;-70
2022/11/23 00:23:50;;;;;;;21.53;10.37;;;8.90;99.90;;;;;;5044183;28;20288;-69
2022/11/23 00:26:26;;;;;;;20.10;11.03;;;8.90;99.90;;;;;;5030335;28;20227;-70
2022/11/23 00:28:56;;;;;;;23.87;11.73;;;8.90;99.90;;;;;;5042108;28;20212;-69
2022/11/23 00:31:24;;;;;;;21.93;11.20;;;9.00;99.90;;;;;;5044650;28;20298;-69
2022/11/23 00:33:54;;;;;;;19.67;11.47;;;8.90;99.90;;;;;;5030191;28;20197;-70
2022/11/23 00:36:22;;;;;;;19.30;11.33;;;9.00;99.90;;;;;;5029357;28;20280;-71
2022/11/23 00:38:53;;;;;;;28.13;11.63;;;9.00;99.90;;;;;;5044199;28;20217;-68
2022/11/23 00:41:23;;;;;;;22.20;11.93;;;9.00;99.90;;;;;;5043494;28;20997;-69
2022/11/23 00:43:49;;;;;;;22.77;12.17;;;9.00;99.90;;;;;;5043367;28;20307;-70
2022/11/23 00:46:19;;;;;;;25.27;12.33;;;9.10;99.90;;;;;;5040016;28;20225;-69
2022/11/23 00:48:49;;;;;;;25.10;13.10;;;9.00;99.90;;;;;;5043950;28;20312;-69
2022/11/23 00:51:27;;;;;;;20.30;11.67;;;9.10;99.90;;;;;;5041792;28;20729;-69
2022/11/23 00:53:56;;;;;;;20.07;12.43;;;9.10;99.90;;;;;;5022729;28;20715;-70
2022/11/23 00:56:23;;;;;;;23.33;12.43;;;9.10;99.90;;;;;;5042288;28;20201;-70
2022/11/23 00:58:55;;;;;;;23.93;13.90;;;9.10;99.90;;;;;;5039996;28;20240;-69
2022/11/23 01:01:29;;;;;;;31.17;14.43;;;9.00;99.90;;;;;;5043307;28;20217;-69
2022/11/23 01:03:58;;;;;;;28.73;15.13;;;9.10;99.90;;;;;;5026245;28;20228;-67
2022/11/23 01:06:28;;;;;;;28.20;14.60;;;9.10;99.90;;;;;;5044989;28;20447;-70
2022/11/23 01:09:01;;;;;;;29.53;15.10;;;9.10;99.90;;;;;;5029831;28;20287;-69
2022/11/23 01:11:29;;;;;;;25.23;14.50;;;9.10;99.90;;;;;;5043769;28;20305;-69
2022/11/23 01:13:56;;;;;;;25.40;14.73;;;9.10;99.90;;;;;;5038667;28;20210;-69
2022/11/23 01:16:31;;;;;;;30.43;15.83;;;9.10;99.90;;;;;;5025557;28;20209;-69
2022/11/23 01:19:02;;;;;;;31.63;17.00;;;9.10;99.90;;;;;;5039869;28;20205;-69
2022/11/23 01:21:30;;;;;;;32.47;16.93;;;9.10;99.90;;;;;;5041847;28;20595;-69
2022/11/23 01:23:57;;;;;;;29.93;16.90;;;9.10;99.90;;;;;;5025942;28;20312;-70
2022/11/23 01:26:24;;;;;;;36.30;17.70;;;9.10;99.90;;;;;;5039866;28;20227;-69
2022/11/23 01:28:51;;;;;;;34.73;17.33;;;9.10;99.90;;;;;;5025986;28;20259;-69
2022/11/23 01:31:20;;;;;;;32.23;17.53;;;9.10;99.90;;;;;;5029444;28;20351;-69
2022/11/23 01:33:52;;;;;;;36.10;19.07;;;9.20;99.90;;;;;;5028801;28;20291;-70
2022/11/23 01:36:21;;;;;;;35.80;18.83;;;9.20;99.90;;;;;;5041932;28;20233;-70
2022/11/23 01:38:49;;;;;;;37.83;19.53;;;9.20;99.90;;;;;;5040211;28;21043;-69
2022/11/23 01:41:28;;;;;;;37.73;19.37;;;9.20;99.90;;;;;;5042983;28;20232;-69
2022/11/23 01:43:55;;;;;;;35.63;20.27;;;9.20;99.90;;;;;;5041927;28;20221;-69
2022/11/23 01:46:22;;;;;;;41.23;19.40;;;9.20;99.90;;;;;;5038698;28;20244;-70
2022/11/23 01:49:03;;;;;;;37.60;19.73;;;9.20;99.90;;;;;;5022607;28;20290;-70
2022/11/23 01:51:34;;;;;;;36.67;18.50;;;9.20;99.90;;;;;;5021643;28;20303;-70
2022/11/23 01:54:05;;;;;;;40.83;19.90;;;9.20;99.90;;;;;;5022124;28;20206;-70
2022/11/23 01:56:38;;;;;;;41.30;21.53;;;9.20;99.90;;;;;;5039126;28;20263;-70
2022/11/23 01:59:10;;;;;;;41.80;19.50;;;9.20;99.90;;;;;;5020189;28;20284;-70
2022/11/23 02:01:37;;;;;;;41.77;20.10;;;9.20;99.90;;;;;;5038819;28;20665;-69
2022/11/23 02:04:07;;;;;;;35.10;19.90;;;9.30;99.90;;;;;;5022510;28;20260;-70
2022/11/23 02:06:34;;;;;;;40.00;19.93;;;9.30;99.90;;;;;;5055638;28;20305;-69
2022/11/23 02:09:01;;;;;;;38.97;19.93;;;9.30;99.90;;;;;;5040033;28;20201;-70
2022/11/23 02:11:28;;;;;;;38.23;19.80;;;9.30;99.90;;;;;;5037239;28;20723;-68
2022/11/23 02:13:55;;;;;;;34.97;18.77;;;9.30;99.90;;;;;;5042820;28;20654;-70
2022/11/23 02:16:22;;;;;;;39.63;18.73;;;9.30;99.90;;;;;;5041354;28;20329;-70
2022/11/23 02:18:52;;;;;;;40.37;19.97;;;9.30;99.90;;;;;;5041580;28;20973;-70
2022/11/23 02:21:19;;;;;;;31.97;18.17;;;9.30;99.90;;;;;;5043696;28;20631;-70
2022/11/23 02:23:57;;;;;;;34.73;18.63;;;9.30;99.90;;;;;;5039567;28;20292;-69
2022/11/23 02:26:30;;;;;;;38.57;18.67;;;9.40;99.90;;;;;;5043691;28;20204;-70
2022/11/23 02:29:10;;;;;;;37.13;18.87;;;9.40;99.90;;;;;;5029807;28;20233;-70
2022/11/23 02:31:37;;;;;;;34.27;18.80;;;9.30;99.90;;;;;;5051013;28;20236;-71
2022/11/23 02:34:05;;;;;;;33.57;18.63;;;9.40;99.90;;;;;;5028945;28;20255;-70
2022/11/23 02:36:42;;;;;;;34.73;18.93;;;9.30;99.90;;;;;;5042212;28;20320;-69
2022/11/23 02:39:17;;;;;;;37.57;17.77;;;9.40;99.90;;;;;;5045513;28;20197;-69
2022/11/23 02:41:49;;;;;;;38.40;18.90;;;9.40;99.90;;;;;;5029648;28;20288;-70
2022/11/23 02:44:30;;;;;;;34.03;17.70;;;9.40;99.90;;;;;;5046401;28;20247;-69
2022/11/23 02:46:57;;;;;;;38.53;18.13;;;9.40;99.90;;;;;;5042239;28;20584;-69
2022/11/23 02:49:24;;;;;;;33.77;18.07;;;9.40;99.90;;;;;;5044416;28;20272;-69
2022/11/23 02:51:52;;;;;;;37.17;17.37;;;9.40;99.90;;;;;;5045475;28;20236;-70
2022/11/23 02:54:19;;;;;;;33.90;17.47;;;9.40;99.90;;;;;;5045060;28;20201;-69
2022/11/23 02:56:45;;;;;;;33.13;17.27;;;9.40;99.90;;;;;;5044180;28;20209;-70
2022/11/23 02:59:12;;;;;;;32.93;16.47;;;9.40;99.90;;;;;;5043811;28;20221;-69
2022/11/23 03:01:39;;;;;;;33.73;17.23;;;9.40;99.90;;;;;;5037060;28;20641;-69
2022/11/23 03:04:07;;;;;;;39.27;16.07;;;9.40;99.90;;;;;;5021412;28;20284;-70
2022/11/23 03:06:33;;;;;;;35.90;15.67;;;9.40;99.90;;;;;;5044350;28;20233;-69
2022/11/23 03:09:00;;;;;;;27.40;14.53;;;9.40;99.90;;;;;;5042316;28;20331;-69
2022/11/23 03:11:27;;;;;;;27.30;14.87;;;9.50;99.90;;;;;;5040870;28;20237;-69
2022/11/23 03:13:54;;;;;;;25.27;14.27;;;9.40;99.90;;;;;;5048451;28;20263;-70
2022/11/23 03:16:21;;;;;;;26.17;13.40;;;9.40;99.90;;;;;;5043794;28;20308;-70
2022/11/23 03:18:48;;;;;;;21.93;12.60;;;9.40;99.90;;;;;;5045284;28;20213;-68
2022/11/23 03:21:14;;;;;;;25.50;13.40;;;9.30;99.90;;;;;;5030231;28;20217;-70
2022/11/23 03:23:42;;;;;;;27.63;11.70;;;9.30;99.90;;;;;;5060125;28;20288;-69
2022/11/23 03:26:09;;;;;;;29.63;11.93;;;9.30;99.90;;;;;;5041766;28;20288;-68
2022/11/23 03:28:39;;;;;;;22.67;11.03;;;9.40;99.90;;;;;;5045118;28;20197;-69
2022/11/23 03:31:06;;;;;;;21.53;11.07;;;9.30;99.90;;;;;;5042133;28;20322;-69
2022/11/23 03:33:33;;;;;;;20.70;10.30;;;9.30;99.90;;;;;;5045537;28;20264;-69
2022/11/23 03:36:00;;;;;;;23.93;10.27;;;9.30;99.90;;;;;;5041560;28;20241;-69
2022/11/23 03:38:27;;;;;;;21.70;9.90;;;9.30;99.90;;;;;;5043607;28;20210;-71
2022/11/23 03:40:53;;;;;;;19.20;9.13;;;9.40;99.90;;;;;;5044264;28;20201;-69
2022/11/23 03:43:21;;;;;;;21.83;9.30;;;9.40;99.90;;;;;;5039961;28;20197;-69
2022/11/23 03:45:48;;;;;;;15.97;9.30;;;9.30;99.90;;;;;;5042526;28;20252;-71
2022/11/23 03:48:15;;;;;;;21.43;9.13;;;9.30;99.90;;;;;;5023710;28;20201;-71
2022/11/23 03:50:44;;;;;;;12.50;8.00;;;9.30;99.90;;;;;;5044007;28;20740;-68
2022/11/23 03:53:11;;;;;;;14.43;7.73;;;9.30;99.90;;;;;;5044770;28;20248;-70
2022/11/23 03:55:38;;;;;;;19.17;8.70;;;9.40;99.90;;;;;;5029864;28;20608;-70
2022/11/23 03:58:06;;;;;;;16.67;7.60;;;9.40;99.90;;;;;;5038101;28;20245;-70
2022/11/23 04:00:33;;;;;;;15.73;7.67;;;9.30;99.90;;;;;;5044693;28;20316;-70
2022/11/23 04:03:01;;;;;;;17.50;8.20;;;9.30;99.90;;;;;;5043048;28;20263;-69
2022/11/23 04:05:28;;;;;;;20.03;7.47;;;9.30;99.90;;;;;;5041713;28;20255;-70
2022/11/23 04:07:55;;;;;;;16.53;7.77;;;9.30;99.90;;;;;;5045254;28;20666;-69
2022/11/23 04:10:21;;;;;;;15.10;7.73;;;9.30;99.90;;;;;;5039492;28;20275;-69
2022/11/23 04:12:52;;;;;;;17.30;7.57;;;9.30;99.90;;;;;;5043148;28;20237;-69
2022/11/23 04:15:19;;;;;;;13.87;6.77;;;9.30;99.90;;;;;;5042930;28;20653;-73
2022/11/23 04:17:46;;;;;;;15.17;7.93;;;9.20;99.90;;;;;;5038597;28;20213;-68
2022/11/23 04:20:13;;;;;;;17.63;8.07;;;9.30;99.90;;;;;;5037549;28;20256;-69
2022/11/23 04:22:40;;;;;;;15.43;6.63;;;9.30;99.90;;;;;;5045620;28;20220;-69
2022/11/23 04:25:08;;;;;;;16.60;7.37;;;9.20;99.90;;;;;;5042839;28;20243;-69
2022/11/23 04:27:35;;;;;;;18.67;6.77;;;9.20;99.90;;;;;;5039327;28;20240;-69
2022/11/23 04:30:03;;;;;;;15.33;7.53;;;9.20;99.90;;;;;;5045525;28;20577;-69
2022/11/23 04:32:30;;;;;;;13.33;6.80;;;9.20;99.90;;;;;;5039231;28;20196;-68
2022/11/23 04:34:56;;;;;;;16.37;6.90;;;9.40;99.90;;;;;;5044332;28;20272;-68
2022/11/23 04:37:23;;;;;;;13.43;6.43;;;9.20;99.90;;;;;;5042478;28;20267;-69
2022/11/23 04:39:50;;;;;;;11.50;6.87;;;9.30;99.90;;;;;;5038657;28;20228;-69
2022/11/23 04:42:17;;;;;;;22.47;7.47;;;9.30;99.90;;;;;;5043064;28;20205;-69
2022/11/23 04:44:45;;;;;;;12.87;6.43;;;9.20;99.90;;;;;;5044397;28;20212;-69
2022/11/23 04:47:12;;;;;;;14.00;7.00;;;9.20;99.90;;;;;;5042067;28;20228;-69
2022/11/23 04:49:40;;;;;;;17.70;7.27;;;9.20;99.90;;;;;;5025611;28;20202;-69
2022/11/23 04:52:06;;;;;;;14.73;6.70;;;9.10;99.90;;;;;;5042992;28;20241;-69
2022/11/23 04:54:33;;;;;;;20.13;6.03;;;9.00;99.90;;;;;;5025672;28;20233;-68
2022/11/23 04:57:00;;;;;;;15.20;6.80;;;9.00;99.90;;;;;;5040073;28;20266;-69
2022/11/23 04:59:27;;;;;;;19.30;6.53;;;8.90;99.90;;;;;;5042945;28;20290;-71
2022/11/23 05:01:54;;;;;;;11.97;5.90;;;8.90;99.90;;;;;;5045338;28;20299;-70
2022/11/23 05:04:22;;;;;;;13.00;6.17;;;8.80;99.90;;;;;;5044208;28;20215;-69
2022/11/23 05:06:49;;;;;;;15.47;6.37;;;8.80;99.90;;;;;;5027539;28;20252;-70
2022/11/23 05:09:16;;;;;;;15.93;6.27;;;8.80;99.90;;;;;;5039907;28;20291;-70
2022/11/23 05:11:43;;;;;;;15.23;6.23;;;8.70;99.90;;;;;;5040645;28;20352;-69
2022/11/23 05:14:10;;;;;;;14.03;5.93;;;8.70;99.90;;;;;;5060071;28;20203;-68
2022/11/23 05:16:37;;;;;;;15.00;6.57;;;8.60;99.90;;;;;;5041923;28;20215;-69
2022/11/23 05:19:04;;;;;;;15.23;6.47;;;8.60;99.90;;;;;;5045640;28;20259;-69
2022/11/23 05:21:31;;;;;;;21.40;6.43;;;8.50;99.90;;;;;;5044440;28;20231;-70
2022/11/23 05:23:57;;;;;;;15.30;7.00;;;8.50;99.90;;;;;;5042673;28;20199;-69
2022/11/23 05:26:26;;;;;;;22.37;7.90;;;8.50;99.90;;;;;;5042188;28;20218;-69
2022/11/23 05:28:53;;;;;;;15.23;6.60;;;8.50;99.90;;;;;;5041949;28;20274;-69
2022/11/23 05:31:23;;;;;;;13.83;6.50;;;8.60;99.90;;;;;;5041275;28;20244;-69
2022/11/23 05:33:50;;;;;;;18.00;6.73;;;8.60;99.90;;;;;;5041798;28;20545;-69
2022/11/23 05:36:17;;;;;;;22.67;6.30;;;8.60;99.90;;;;;;5040430;28;20243;-70
2022/11/23 05:38:43;;;;;;;18.10;7.07;;;8.70;99.90;;;;;;5055033;28;20209;-68
2022/11/23 05:41:13;;;;;;;19.30;6.73;;;8.70;99.90;;;;;;5056785;28;20216;-68
2022/11/23 05:43:40;;;;;;;16.40;6.07;;;8.70;99.90;;;;;;5043916;28;20211;-68
2022/11/23 05:46:07;;;;;;;16.90;6.07;;;8.80;99.90;;;;;;5039475;28;20562;-68
2022/11/23 05:48:34;;;;;;;21.77;6.80;;;8.80;99.90;;;;;;5029975;28;20254;-69
2022/11/23 05:51:03;;;;;;;10.87;5.53;;;8.90;99.90;;;;;;5041521;28;20294;-68
2022/11/23 05:53:31;;;;;;;18.80;6.90;;;8.90;99.90;;;;;;5041409;28;20201;-70
2022/11/23 05:56:00;;;;;;;24.17;6.63;;;8.90;99.90;;;;;;5045574;28;20232;-71
2022/11/23 05:58:30;;;;;;;12.90;5.73;;;8.90;99.90;;;;;;5035326;28;20208;-69
2022/11/23 06:01:01;;;;;;;21.60;5.30;;;9.00;99.90;;;;;;5050060;28;20197;-71
2022/11/23 06:03:27;;;;;;;18.73;5.80;;;9.00;99.90;;;;;;5054506;28;20220;-69
2022/11/23 06:05:58;;;;;;;13.97;5.40;;;9.00;99.90;;;;;;5049909;28;20220;-69
2022/11/23 06:08:25;;;;;;;18.57;6.73;;;9.00;99.90;;;;;;5068900;28;20589;-69
2022/11/23 06:10:52;;;;;;;14.97;4.60;;;9.10;99.90;;;;;;5054601;28;20227;-68
2022/11/23 06:13:21;;;;;;;15.63;4.90;;;9.00;99.90;;;;;;5054268;28;20261;-69
2022/11/23 06:15:51;;;;;;;13.87;4.57;;;9.10;99.90;;;;;;5048243;28;20627;-70
2022/11/23 06:18:20;;;;;;;18.13;5.23;;;9.10;99.90;;;;;;5057435;28;20294;-70
2022/11/23 06:20:47;;;;;;;11.23;4.23;;;9.10;99.90;;;;;;5050109;28;20215;-69
2022/11/23 06:23:14;;;;;;;13.17;4.97;;;9.10;99.90;;;;;;5028957;28;20280;-69
2022/11/23 06:25:40;;;;;;;15.70;4.00;;;9.10;99.90;;;;;;5050491;28;20288;-69
2022/11/23 06:28:07;;;;;;;13.53;4.07;;;9.10;99.90;;;;;;5047735;28;20231;-69
2022/11/23 06:30:34;;;;;;;13.13;4.17;;;9.10;99.90;;;;;;5048922;28;20245;-69
2022/11/23 06:33:04;;;;;;;14.30;4.97;;;9.10;99.90;;;;;;5055153;28;20295;-69
2022/11/23 06:35:31;;;;;;;15.10;4.20;;;9.10;99.90;;;;;;5047000;28;20268;-69
2022/11/23 06:37:57;;;;;;;13.83;4.60;;;9.10;99.90;;;;;;5034617;28;20209;-69
2022/11/23 06:40:24;;;;;;;11.00;3.70;;;9.20;99.90;;;;;;5047484;28;20201;-69
2022/11/23 06:42:59;;;;;;;14.90;3.33;;;9.20;99.90;;;;;;5047981;28;20293;-68
2022/11/23 06:45:26;;;;;;;12.13;4.10;;;9.20;99.90;;;;;;5050898;28;20295;-69
2022/11/23 06:47:55;;;;;;;18.13;4.10;;;9.20;99.90;;;;;;5047662;28;20201;-70
2022/11/23 06:50:22;;;;;;;16.57;4.43;;;9.20;99.90;;;;;;5049503;28;20211;-70
2022/11/23 06:52:54;;;;;;;12.03;4.30;;;9.20;99.90;;;;;;5040856;28;20824;-68
2022/11/23 06:55:21;;;;;;;14.00;3.77;;;9.30;99.90;;;;;;5044702;28;20613;-69
2022/11/23 06:57:48;;;;;;;14.83;4.83;;;9.30;99.90;;;;;;5043071;28;20244;-69
2022/11/23 07:00:16;;;;;;;12.67;4.47;;;9.30;99.90;;;;;;5041261;28;20312;-71
2022/11/23 07:02:43;;;;;;;13.77;4.67;;;9.30;99.90;;;;;;5041969;28;20212;-69
2022/11/23 07:05:09;;;;;;;19.67;4.70;;;9.30;99.90;;;;;;5048842;28;20315;-71
2022/11/23 07:07:36;;;;;;;8.97;4.17;;;9.20;99.90;;;;;;5040197;28;20316;-69
2022/11/23 07:10:04;;;;;;;15.43;4.43;;;9.20;99.90;;;;;;5045479;28;20253;-69
2022/11/23 07:12:33;;;;;;;15.83;4.17;;;9.20;99.90;;;;;;5041875;28;20232;-70
2022/11/23 07:14:59;;;;;;;12.77;4.13;;;9.20;99.90;;;;;;5046770;28;20205;-70
2022/11/23 07:17:26;;;;;;;13.67;4.50;;;9.20;99.90;;;;;;5053300;28;20264;-70
2022/11/23 07:19:53;;;;;;;21.10;6.63;;;9.20;99.90;;;;;;5043074;28;20288;-70
2022/11/23 07:22:20;;;;;;;10.07;4.17;;;9.10;99.90;;;;;;5042441;28;20778;-70
2022/11/23 07:24:46;;;;;;;12.63;4.30;;;9.10;99.90;;;;;;5023389;28;20284;-70
2022/11/23 07:27:16;;;;;;;15.57;4.47;;;9.10;99.90;;;;;;5043446;28;20688;-70
2022/11/23 07:29:42;;;;;;;17.73;4.07;;;9.10;99.90;;;;;;5046877;28;20198;-70
2022/11/23 07:32:09;;;;;;;10.13;4.70;;;9.10;99.90;;;;;;5043786;28;20704;-70
2022/11/23 07:34:36;;;;;;;15.27;4.80;;;9.10;99.90;;;;;;5042223;28;20716;-70
2022/11/23 07:37:03;;;;;;;18.20;4.13;;;9.10;99.90;;;;;;5042263;28;20744;-69
2022/11/23 07:39:30;;;;;;;15.30;4.93;;;9.20;99.90;;;;;;5043919;28;20209;-69
2022/11/23 07:42:17;;;;;;;11.93;4.43;;;9.20;99.90;;;;;;5038632;28;20209;-69
2022/11/23 07:44:58;;;;;;;13.13;4.47;;;9.20;99.90;;;;;;5040872;28;20308;-70
2022/11/23 07:47:25;;;;;;;17.30;4.40;;;9.10;99.90;;;;;;5042355;28;20209;-69
2022/11/23 07:49:51;;;;;;;19.53;5.00;;;9.20;99.90;;;;;;5042306;28;20215;-69
2022/11/23 07:52:18;;;;;;;16.20;4.77;;;9.20;99.90;;;;;;5044972;28;20233;-70
2022/11/23 07:54:45;;;;;;;14.30;4.63;;;9.10;99.90;;;;;;5041385;28;20205;-69
2022/11/23 07:57:12;;;;;;;16.90;5.47;;;9.10;99.90;;;;;;5027362;28;20241;-70
2022/11/23 07:59:39;;;;;;;11.03;4.00;;;9.20;99.90;;;;;;5046549;28;20241;-70
2022/11/23 08:02:05;;;;;;;25.27;5.13;;;9.20;99.90;;;;;;5045379;28;20213;-69
2022/11/23 08:04:32;;;;;;;13.27;4.00;;;9.10;99.90;;;;;;5044430;28;20197;-69
2022/11/23 08:07:01;;;;;;;18.33;3.93;;;9.20;99.90;;;;;;5045793;28;20218;-69
2022/11/23 08:09:28;;;;;;;19.03;4.13;;;9.20;99.90;;;;;;5047594;28;20205;-69
2022/11/23 08:11:55;;;;;;;17.13;4.23;;;9.20;99.90;;;;;;5044361;28;20259;-69
2022/11/23 08:14:24;;;;;;;16.10;4.23;;;9.20;99.90;;;;;;5044551;28;20237;-70
2022/11/23 08:16:51;;;;;;;21.23;5.63;;;9.30;99.90;;;;;;5024207;28;20300;-70
2022/11/23 08:19:18;;;;;;;19.30;4.33;;;9.30;99.90;;;;;;5047441;28;20589;-71
2022/11/23 08:21:45;;;;;;;16.23;3.60;;;9.30;99.90;;;;;;5040746;28;20256;-70
2022/11/23 08:24:12;;;;;;;14.57;4.00;;;9.30;99.90;;;;;;5042289;28;20209;-69
2022/11/23 08:26:39;;;;;;;19.17;4.00;;;9.20;99.90;;;;;;5043580;28;20193;-70
2022/11/23 08:29:05;;;;;;;19.30;3.70;;;9.20;99.90;;;;;;5039894;28;20285;-70
2022/11/23 08:31:32;;;;;;;18.07;4.37;;;9.30;99.90;;;;;;5046699;28;20217;-69
2022/11/23 08:33:59;;;;;;;18.90;5.27;;;9.30;99.90;;;;;;5041478;28;20206;-70
2022/11/23 08:36:29;;;;;;;18.40;4.33;;;9.30;99.90;;;;;;5059296;28;20228;-69
2022/11/23 08:38:56;;;;;;;15.80;3.50;;;9.30;99.90;;;;;;5039598;28;20587;-69
2022/11/23 08:41:23;;;;;;;17.63;4.20;;;9.40;99.90;;;;;;5043411;28;20622;-70
2022/11/23 08:43:50;;;;;;;12.13;3.70;;;9.40;99.90;;;;;;5046559;28;20295;-69
2022/11/23 08:46:17;;;;;;;19.43;3.80;;;9.30;99.90;;;;;;5039592;28;20205;-70
2022/11/23 08:48:43;;;;;;;15.57;3.70;;;9.30;99.90;;;;;;5045459;28;20245;-69
2022/11/23 08:51:11;;;;;;;25.20;5.20;;;9.30;99.90;;;;;;5041798;28;20772;-69
2022/11/23 08:53:38;;;;;;;15.00;3.53;;;9.30;99.90;;;;;;5044024;28;20665;-71
2022/11/23 08:56:06;;;;;;;19.13;4.03;;;9.30;99.90;;;;;;5043913;28;20629;-70
2022/11/23 08:58:33;;;;;;;17.67;3.53;;;9.30;99.90;;;;;;5039628;28;20585;-69
2022/11/23 09:00:59;;;;;;;18.40;3.60;;;9.30;99.90;;;;;;5038064;28;20287;-69
2022/11/23 09:03:26;;;;;;;21.80;3.70;;;9.40;99.90;;;;;;5043488;28;20400;-69
2022/11/23 09:05:57;;;;;;;12.97;3.67;;;9.40;99.90;;;;;;5046600;28;20271;-69
2022/11/23 09:08:24;;;;;;;14.97;3.90;;;9.50;99.90;;;;;;5043526;28;20294;-69
2022/11/23 09:10:51;;;;;;;16.63;3.53;;;9.50;99.90;;;;;;5043147;28;20698;-69
2022/11/23 09:13:18;;;;;;;15.97;3.47;;;9.40;99.90;;;;;;5045493;28;20233;-70
2022/11/23 09:15:45;;;;;;;17.20;3.50;;;9.50;99.90;;;;;;5043336;28;20204;-69
2022/11/23 09:18:12;;;;;;;13.87;4.70;;;9.50;99.90;;;;;;5039127;28;20645;-69
2022/11/23 09:20:39;;;;;;;13.77;3.43;;;9.50;99.90;;;;;;5039721;28;20610;-70
2022/11/23 09:23:06;;;;;;;16.97;3.97;;;9.50;99.90;;;;;;5042314;28;20205;-69
2022/11/23 09:25:41;;;;;;;12.23;3.60;;;9.40;99.90;;;;;;5040702;28;20632;-69
2022/11/23 09:28:08;;;;;;;12.10;3.57;;;9.50;99.90;;;;;;5042347;28;20204;-70
2022/11/23 09:30:35;;;;;;;14.60;3.40;;;9.60;99.90;;;;;;5021332;28;20201;-69
2022/11/23 09:33:01;;;;;;;15.90;4.17;;;9.70;99.90;;;;;;5037769;28;20673;-70
2022/11/23 09:35:28;;;;;;;13.77;2.90;;;9.70;99.90;;;;;;5042213;28;20220;-71
2022/11/23 09:37:57;;;;;;;13.10;3.30;;;9.70;99.90;;;;;;5039590;28;20335;-70
2022/11/23 09:40:30;;;;;;;16.83;2.93;;;9.70;99.90;;;;;;5040727;28;20208;-72
2022/11/23 09:43:18;;;;;;;15.40;3.60;;;9.70;99.90;;;;;;5040546;28;20952;-70
2022/11/23 09:45:45;;;;;;;14.83;4.10;;;9.80;99.90;;;;;;5035271;28;20705;-69
2022/11/23 09:48:11;;;;;;;16.47;3.93;;;9.90;99.90;;;;;;5040732;28;20666;-69
2022/11/23 09:50:51;;;;;;;12.07;3.40;;;10.00;99.90;;;;;;5041979;28;20205;-69
2022/11/23 09:53:50;;;;;;;16.20;3.37;;;10.00;99.90;;;;;;5040765;28;20349;-70
2022/11/23 09:56:21;;;;;;;16.97;3.57;;;10.10;99.90;;;;;;5040071;28;20425;-69
2022/11/23 09:58:53;;;;;;;19.37;3.73;;;10.00;99.90;;;;;;5039457;28;20240;-70
2022/11/23 10:01:20;;;;;;;15.73;2.90;;;9.90;99.90;;;;;;5040610;28;20662;-69
2022/11/23 10:03:47;;;;;;;16.90;4.20;;;9.90;99.90;;;;;;5041892;28;20208;-70
2022/11/23 10:06:17;;;;;;;13.37;3.33;;;9.90;99.90;;;;;;5035598;28;20214;-70
2022/11/23 10:08:58;;;;;;;11.77;3.47;;;9.90;99.90;;;;;;5041649;28;20300;-70
2022/11/23 10:11:25;;;;;;;15.73;3.50;;;9.90;99.90;;;;;;5057552;28;20244;-70
2022/11/23 10:14:26;;;;;;;9.90;3.30;;;9.90;99.90;;;;;;5037322;28;20233;-70
2022/11/23 10:17:12;;;;;;;21.03;4.57;;;9.90;99.90;;;;;;5039803;28;20209;-70
2022/11/23 10:20:04;;;;;;;16.43;3.57;;;9.80;99.90;;;;;;5037727;28;20219;-69
2022/11/23 10:22:45;;;;;;;10.53;3.10;;;9.80;99.90;;;;;;5032456;28;20221;-69
2022/11/23 10:25:20;;;;;;;14.40;3.47;;;9.70;99.90;;;;;;5044323;28;20201;-70
2022/11/23 10:27:49;;;;;;;17.23;3.27;;;9.70;99.90;;;;;;5037992;28;20213;-70
2022/11/23 10:30:17;;;;;;;15.07;2.73;;;9.70;99.90;;;;;;5036297;28;21173;-69
2022/11/23 10:32:54;;;;;;;11.03;2.60;;;9.70;99.90;;;;;;5037701;28;20231;-70
2022/11/23 10:35:28;;;;;;;10.57;3.00;;;9.70;99.90;;;;;;5047928;28;20299;-70
2022/11/23 10:38:19;;;;;;;18.23;3.80;;;9.70;99.90;;;;;;5049089;28;20216;-69
2022/11/23 10:41:00;;;;;;;14.67;3.13;;;9.70;99.90;;;;;;5045523;28;20304;-70
2022/11/23 10:43:44;;;;;;;13.83;3.30;;;9.70;99.90;;;;;;5027190;28;20201;-70
2022/11/23 10:46:31;;;;;;;11.43;2.60;;;9.70;99.90;;;;;;5040872;28;20215;-69
2022/11/23 10:49:14;;;;;;;15.20;2.70;;;9.60;99.90;;;;;;5043353;28;20208;-70
2022/11/23 10:51:56;;;;;;;9.53;2.83;;;9.60;99.90;;;;;;5041497;28;20228;-70
2022/11/23 10:54:46;;;;;;;12.53;3.23;;;9.70;99.90;;;;;;5045640;28;20481;-70
2022/11/23 10:57:26;;;;;;;11.53;2.97;;;9.70;99.90;;;;;;5055092;28;20287;-70
2022/11/23 11:00:03;;;;;;;16.17;2.93;;;9.70;99.90;;;;;;5040750;28;20676;-70
2022/11/23 11:02:42;;;;;;;12.13;3.10;;;9.60;99.90;;;;;;5042058;28;20219;-70
2022/11/23 11:05:24;;;;;;;11.17;2.97;;;9.60;99.90;;;;;;5042646;28;20967;-69
2022/11/23 11:08:20;;;;;;;12.30;2.43;;;9.70;99.90;;;;;;5040758;28;20205;-69
2022/11/23 11:10:55;;;;;;;12.30;2.90;;;9.70;99.90;;;;;;5044934;28;20216;-70
2022/11/23 11:13:42;;;;;;;15.47;2.90;;;9.70;99.90;;;;;;5040744;28;20351;-70
2022/11/23 11:16:21;;;;;;;7.47;2.37;;;9.70;99.90;;;;;;5042453;28;20300;-71
2022/11/23 11:18:47;;;;;;;13.63;2.67;;;9.70;99.90;;;;;;5030407;28;20208;-70
2022/11/23 11:21:26;;;;;;;13.60;2.87;;;9.70;99.90;;;;;;5044703;28;20312;-70
2022/11/23 11:24:05;;;;;;;13.50;4.33;;;9.70;99.90;;;;;;5046740;28;20646;-72
2022/11/23 11:26:33;;;;;;;10.47;3.27;;;9.70;99.90;;;;;;5042886;28;20205;-70
2022/11/23 11:29:03;;;;;;;17.23;3.77;;;9.70;99.90;;;;;;5044914;28;20206;-70
2022/11/23 11:31:56;;;;;;;11.40;3.37;;;9.80;99.90;;;;;;5046384;28;20288;-70
2022/11/23 11:34:40;;;;;;;9.97;2.77;;;9.80;99.90;;;;;;5048165;28;20288;-71
2022/11/23 11:37:31;;;;;;;9.97;3.47;;;9.90;99.90;;;;;;5041698;28;20257;-71
2022/11/23 11:40:19;;;;;;;12.10;3.27;;;9.90;99.90;;;;;;5042641;28;20205;-70
2022/11/23 11:42:58;;;;;;;13.03;2.70;;;9.90;99.90;;;;;;5043126;28;20200;-70
2022/11/23 11:45:30;;;;;;;9.70;2.83;;;9.90;99.90;;;;;;5043770;28;20305;-69
2022/11/23 11:48:29;;;;;;;12.27;2.37;;;9.90;99.90;;;;;;5044790;28;20678;-69
2022/11/23 11:51:04;;;;;;;10.67;2.27;;;9.90;99.90;;;;;;5043053;28;20232;-69
2022/11/23 11:53:40;;;;;;;9.37;2.20;;;10.00;99.90;;;;;;5041742;28;20232;-70
2022/11/23 11:56:32;;;;;;;8.73;1.93;;;10.00;99.90;;;;;;5055685;28;20342;-69
2022/11/23 11:59:12;;;;;;;7.57;3.00;;;10.00;99.90;;;;;;5047749;28;20198;-69
2022/11/23 12:01:50;;;;;;;14.17;4.50;;;10.10;99.90;;;;;;5040491;28;20309;-69
2022/11/23 12:04:24;;;;;;;10.77;2.33;;;10.10;99.90;;;;;;5044327;28;20690;-70
2022/11/23 12:07:09;;;;;;;12.07;2.33;;;10.10;99.90;;;;;;5031552;28;20301;-70
2022/11/23 12:09:41;;;;;;;6.57;2.10;;;10.20;99.90;;;;;;5039921;28;20197;-70
2022/11/23 12:12:15;;;;;;;11.40;2.40;;;10.20;99.90;;;;;;5040013;28;20292;-69
2022/11/23 12:14:42;;;;;;;8.03;1.90;;;10.20;99.90;;;;;;5039677;28;20301;-71
2022/11/23 12:17:40;;;;;;;9.73;2.23;;;10.20;99.90;;;;;;5042299;28;20211;-70
2022/11/23 12:20:13;;;;;;;9.17;2.13;;;10.30;99.90;;;;;;5039006;28;20210;-68
2022/11/23 12:23:18;;;;;;;12.23;2.40;;;10.40;99.90;;;;;;5042203;28;20229;-70
2022/11/23 12:26:19;;;;;;;7.10;2.20;;;10.40;99.90;;;;;;5043818;28;20213;-68
2022/11/23 12:28:52;;;;;;;10.50;2.27;;;10.50;99.90;;;;;;5042306;28;20209;-70
2022/11/23 12:31:28;;;;;;;9.73;2.53;;;10.50;99.90;;;;;;5038892;28;20260;-70
2022/11/23 12:34:11;;;;;;;5.87;1.70;;;10.60;99.90;;;;;;5044098;28;20229;-70
2022/11/23 12:37:04;;;;;;;9.23;2.30;;;10.60;99.90;;;;;;5042345;28;20694;-71
2022/11/23 12:40:07;;;;;;;12.07;3.00;;;10.60;99.90;;;;;;5023535;28;20202;-70
2022/11/23 12:42:40;;;;;;;11.30;2.10;;;10.50;99.90;;;;;;5040820;28;20217;-69
2022/11/23 12:45:26;;;;;;;6.87;1.87;;;10.50;99.90;;;;;;5008703;28;20304;-71
2022/11/23 12:48:11;;;;;;;11.10;1.80;;;10.50;99.90;;;;;;5041011;28;20647;-70
2022/11/23 12:50:47;;;;;;;11.07;1.83;;;10.50;99.90;;;;;;5040760;28;20243;-70
2022/11/23 12:53:51;;;;;;;8.83;1.83;;;10.60;99.90;;;;;;5042319;28;20260;-71
2022/11/23 12:56:43;;;;;;;7.97;2.03;;;10.70;99.90;;;;;;5040937;28;20201;-71
2022/11/23 12:59:12;;;;;;;10.60;1.80;;;10.70;99.90;;;;;;5038104;28;20236;-69
2022/11/23 13:01:43;;;;;;;10.87;1.87;;;10.60;99.90;;;;;;5043019;28;20646;-70
2022/11/23 13:04:22;;;;;;;8.00;2.27;;;10.60;99.90;;;;;;5039832;28;20213;-70